sensor_id;sensor_type;location;lat;lon;timestamp;P1;durP1;ratioP1;P2;durP2;ratioP2
38717;SDS011;24468;52.128;9.278;2022-11-14T00:00:30;27.33;;;17.65;;
38717;SDS011;24468;52.128;9.278;2022-11-14T00:03:01;25.92;;;17.70;;
38717;SDS011;24468;52.128;9.278;2022-11-14T00:05:30;25.65;;;17.77;;
38717;SDS011;24468;52.128;9.278;2022-11-14T00:07:55;26.73;;;19.08;;
38717;SDS011;24468;52.128;9.278;2022-11-14T00:10:21;25.50;;;17.30;;
38717;SDS011;24468;52.128;9.278;2022-11-14T00:12:47;24.35;;;16.48;;
38717;SDS011;24468;52.128;9.278;2022-11-14T00:15:13;25.10;;;16.73;;
38717;SDS011;24468;52.128;9.278;2022-11-14T00:17:39;28.17;;;17.73;;
38717;SDS011;24468;52.128;9.278;2022-11-14T00:20:06;24.38;;;16.48;;
38717;SDS011;24468;52.128;9.278;2022-11-14T00:22:34;27.42;;;17.05;;
38717;SDS011;24468;52.128;9.278;2022-11-14T00:24:59;25.17;;;16.83;;
38717;SDS011;24468;52.128;9.278;2022-11-14T00:27:25;27.58;;;18.67;;
38717;SDS011;24468;52.128;9.278;2022-11-14T00:29:51;25.52;;;17.27;;
38717;SDS011;24468;52.128;9.278;2022-11-14T00:32:17;24.48;;;15.75;;
38717;SDS011;24468;52.128;9.278;2022-11-14T00:34:42;24.15;;;16.70;;
38717;SDS011;24468;52.128;9.278;2022-11-14T00:37:08;27.23;;;17.23;;
38717;SDS011;24468;52.128;9.278;2022-11-14T00:39:33;22.15;;;15.50;;
38717;SDS011;24468;52.128;9.278;2022-11-14T00:41:59;26.75;;;17.40;;
38717;SDS011;24468;52.128;9.278;2022-11-14T00:44:24;22.00;;;14.85;;
38717;SDS011;24468;52.128;9.278;2022-11-14T00:46:50;24.23;;;15.70;;
38717;SDS011;24468;52.128;9.278;2022-11-14T00:49:15;25.65;;;16.25;;
38717;SDS011;24468;52.128;9.278;2022-11-14T00:51:41;23.73;;;16.27;;
38717;SDS011;24468;52.128;9.278;2022-11-14T00:54:06;27.10;;;16.90;;
38717;SDS011;24468;52.128;9.278;2022-11-14T00:56:32;27.85;;;17.17;;
38717;SDS011;24468;52.128;9.278;2022-11-14T00:58:57;21.92;;;15.63;;
38717;SDS011;24468;52.128;9.278;2022-11-14T01:01:23;24.55;;;15.93;;
38717;SDS011;24468;52.128;9.278;2022-11-14T01:03:49;24.40;;;15.93;;
38717;SDS011;24468;52.128;9.278;2022-11-14T01:06:16;25.80;;;16.45;;
38717;SDS011;24468;52.128;9.278;2022-11-14T01:08:42;26.20;;;16.98;;
38717;SDS011;24468;52.128;9.278;2022-11-14T01:11:14;26.42;;;16.23;;
38717;SDS011;24468;52.128;9.278;2022-11-14T01:13:43;25.63;;;16.77;;
38717;SDS011;24468;52.128;9.278;2022-11-14T01:16:09;25.98;;;16.60;;
38717;SDS011;24468;52.128;9.278;2022-11-14T01:18:35;23.33;;;17.15;;
38717;SDS011;24468;52.128;9.278;2022-11-14T01:21:09;25.35;;;16.25;;
38717;SDS011;24468;52.128;9.278;2022-11-14T01:23:37;28.40;;;16.77;;
38717;SDS011;24468;52.128;9.278;2022-11-14T01:26:07;31.98;;;18.05;;
38717;SDS011;24468;52.128;9.278;2022-11-14T01:28:35;26.02;;;17.55;;
38717;SDS011;24468;52.128;9.278;2022-11-14T01:33:56;25.35;;;17.17;;
38717;SDS011;24468;52.128;9.278;2022-11-14T01:36:21;23.70;;;16.23;;
38717;SDS011;24468;52.128;9.278;2022-11-14T01:38:50;25.33;;;17.60;;
38717;SDS011;24468;52.128;9.278;2022-11-14T01:41:17;25.00;;;16.63;;
38717;SDS011;24468;52.128;9.278;2022-11-14T01:43:44;25.33;;;15.70;;
38717;SDS011;24468;52.128;9.278;2022-11-14T01:54:33;24.60;;;16.15;;
38717;SDS011;24468;52.128;9.278;2022-11-14T01:57:02;28.73;;;17.83;;
38717;SDS011;24468;52.128;9.278;2022-11-14T01:59:31;28.33;;;18.13;;
38717;SDS011;24468;52.128;9.278;2022-11-14T02:02:04;23.80;;;16.00;;
38717;SDS011;24468;52.128;9.278;2022-11-14T02:04:37;29.92;;;18.67;;
38717;SDS011;24468;52.128;9.278;2022-11-14T02:07:08;24.50;;;15.20;;
38717;SDS011;24468;52.128;9.278;2022-11-14T02:09:37;27.10;;;17.27;;
38717;SDS011;24468;52.128;9.278;2022-11-14T02:12:07;25.98;;;16.40;;
38717;SDS011;24468;52.128;9.278;2022-11-14T02:14:36;27.20;;;17.67;;
38717;SDS011;24468;52.128;9.278;2022-11-14T02:17:03;28.85;;;17.80;;
38717;SDS011;24468;52.128;9.278;2022-11-14T02:22:09;24.08;;;15.65;;
38717;SDS011;24468;52.128;9.278;2022-11-14T02:24:35;25.48;;;18.13;;
38717;SDS011;24468;52.128;9.278;2022-11-14T02:27:01;27.30;;;18.02;;
38717;SDS011;24468;52.128;9.278;2022-11-14T02:29:30;26.33;;;17.38;;
38717;SDS011;24468;52.128;9.278;2022-11-14T02:31:57;27.05;;;16.35;;
38717;SDS011;24468;52.128;9.278;2022-11-14T02:34:23;25.85;;;17.05;;
38717;SDS011;24468;52.128;9.278;2022-11-14T02:36:49;24.92;;;15.55;;
38717;SDS011;24468;52.128;9.278;2022-11-14T02:39:15;22.75;;;15.93;;
38717;SDS011;24468;52.128;9.278;2022-11-14T02:41:40;25.15;;;16.20;;
38717;SDS011;24468;52.128;9.278;2022-11-14T02:44:06;24.40;;;15.95;;
38717;SDS011;24468;52.128;9.278;2022-11-14T02:46:31;20.48;;;14.50;;
38717;SDS011;24468;52.128;9.278;2022-11-14T02:48:57;30.40;;;17.98;;
38717;SDS011;24468;52.128;9.278;2022-11-14T02:51:22;24.35;;;15.40;;
38717;SDS011;24468;52.128;9.278;2022-11-14T02:53:48;24.25;;;15.50;;
38717;SDS011;24468;52.128;9.278;2022-11-14T02:56:13;25.25;;;16.35;;
38717;SDS011;24468;52.128;9.278;2022-11-14T02:58:39;23.88;;;16.10;;
38717;SDS011;24468;52.128;9.278;2022-11-14T03:01:04;24.63;;;16.65;;
38717;SDS011;24468;52.128;9.278;2022-11-14T03:03:30;24.48;;;16.40;;
38717;SDS011;24468;52.128;9.278;2022-11-14T03:05:59;26.02;;;15.95;;
38717;SDS011;24468;52.128;9.278;2022-11-14T03:08:26;25.40;;;16.65;;
38717;SDS011;24468;52.128;9.278;2022-11-14T03:10:52;32.13;;;18.75;;
38717;SDS011;24468;52.128;9.278;2022-11-14T03:13:18;27.17;;;15.98;;
38717;SDS011;24468;52.128;9.278;2022-11-14T03:15:43;25.52;;;15.93;;
38717;SDS011;24468;52.128;9.278;2022-11-14T03:18:09;27.52;;;17.38;;
38717;SDS011;24468;52.128;9.278;2022-11-14T03:20:35;26.90;;;16.98;;
38717;SDS011;24468;52.128;9.278;2022-11-14T03:23:00;25.38;;;16.60;;
38717;SDS011;24468;52.128;9.278;2022-11-14T03:25:26;24.45;;;14.90;;
38717;SDS011;24468;52.128;9.278;2022-11-14T03:27:51;25.45;;;16.25;;
38717;SDS011;24468;52.128;9.278;2022-11-14T03:30:17;30.75;;;18.35;;
38717;SDS011;24468;52.128;9.278;2022-11-14T03:32:42;29.05;;;18.50;;
38717;SDS011;24468;52.128;9.278;2022-11-14T03:35:08;28.88;;;17.15;;
38717;SDS011;24468;52.128;9.278;2022-11-14T03:37:34;25.63;;;16.88;;
38717;SDS011;24468;52.128;9.278;2022-11-14T03:40:00;27.90;;;17.60;;
38717;SDS011;24468;52.128;9.278;2022-11-14T03:42:26;27.75;;;17.05;;
38717;SDS011;24468;52.128;9.278;2022-11-14T03:44:51;26.55;;;17.23;;
38717;SDS011;24468;52.128;9.278;2022-11-14T03:47:17;22.13;;;16.02;;
38717;SDS011;24468;52.128;9.278;2022-11-14T03:49:42;26.02;;;16.50;;
38717;SDS011;24468;52.128;9.278;2022-11-14T03:52:09;27.88;;;17.73;;
38717;SDS011;24468;52.128;9.278;2022-11-14T03:54:36;27.20;;;16.45;;
38717;SDS011;24468;52.128;9.278;2022-11-14T03:57:02;27.33;;;17.27;;
38717;SDS011;24468;52.128;9.278;2022-11-14T03:59:28;26.50;;;17.10;;
38717;SDS011;24468;52.128;9.278;2022-11-14T04:01:53;24.60;;;15.85;;
38717;SDS011;24468;52.128;9.278;2022-11-14T04:04:19;25.85;;;16.88;;
38717;SDS011;24468;52.128;9.278;2022-11-14T04:06:44;29.13;;;17.25;;
38717;SDS011;24468;52.128;9.278;2022-11-14T04:09:10;26.50;;;15.43;;
38717;SDS011;24468;52.128;9.278;2022-11-14T04:11:36;26.20;;;17.48;;
38717;SDS011;24468;52.128;9.278;2022-11-14T04:14:01;24.80;;;15.93;;
38717;SDS011;24468;52.128;9.278;2022-11-14T04:16:27;23.30;;;15.85;;
38717;SDS011;24468;52.128;9.278;2022-11-14T04:18:52;24.27;;;16.20;;
38717;SDS011;24468;52.128;9.278;2022-11-14T04:21:18;26.70;;;15.82;;
38717;SDS011;24468;52.128;9.278;2022-11-14T04:23:44;25.35;;;16.08;;
38717;SDS011;24468;52.128;9.278;2022-11-14T04:26:09;26.00;;;16.83;;
38717;SDS011;24468;52.128;9.278;2022-11-14T04:28:35;26.65;;;17.00;;
38717;SDS011;24468;52.128;9.278;2022-11-14T04:31:00;24.85;;;16.13;;
38717;SDS011;24468;52.128;9.278;2022-11-14T04:33:26;26.02;;;16.70;;
38717;SDS011;24468;52.128;9.278;2022-11-14T04:35:52;27.15;;;17.13;;
38717;SDS011;24468;52.128;9.278;2022-11-14T04:38:17;24.80;;;15.68;;
38717;SDS011;24468;52.128;9.278;2022-11-14T04:40:52;26.83;;;16.27;;
38717;SDS011;24468;52.128;9.278;2022-11-14T04:43:18;21.75;;;14.50;;
38717;SDS011;24468;52.128;9.278;2022-11-14T04:45:44;22.45;;;15.07;;
38717;SDS011;24468;52.128;9.278;2022-11-14T04:48:10;30.52;;;19.08;;
38717;SDS011;24468;52.128;9.278;2022-11-14T04:50:36;36.00;;;24.63;;
38717;SDS011;24468;52.128;9.278;2022-11-14T04:53:03;33.55;;;22.52;;
38717;SDS011;24468;52.128;9.278;2022-11-14T04:55:29;27.60;;;16.85;;
38717;SDS011;24468;52.128;9.278;2022-11-14T04:57:55;26.00;;;15.88;;
38717;SDS011;24468;52.128;9.278;2022-11-14T05:00:22;27.63;;;17.17;;
38717;SDS011;24468;52.128;9.278;2022-11-14T05:02:49;29.17;;;17.75;;
38717;SDS011;24468;52.128;9.278;2022-11-14T05:05:15;30.42;;;17.17;;
38717;SDS011;24468;52.128;9.278;2022-11-14T05:07:41;25.50;;;15.85;;
38717;SDS011;24468;52.128;9.278;2022-11-14T05:10:07;28.70;;;16.27;;
38717;SDS011;24468;52.128;9.278;2022-11-14T05:12:33;27.15;;;16.42;;
38717;SDS011;24468;52.128;9.278;2022-11-14T05:14:59;31.10;;;16.73;;
38717;SDS011;24468;52.128;9.278;2022-11-14T05:17:25;29.48;;;17.30;;
38717;SDS011;24468;52.128;9.278;2022-11-14T05:19:51;26.38;;;16.27;;
38717;SDS011;24468;52.128;9.278;2022-11-14T05:22:16;26.83;;;16.85;;
38717;SDS011;24468;52.128;9.278;2022-11-14T05:24:42;27.20;;;17.25;;
38717;SDS011;24468;52.128;9.278;2022-11-14T05:27:08;26.08;;;16.23;;
38717;SDS011;24468;52.128;9.278;2022-11-14T05:29:33;28.52;;;17.73;;
38717;SDS011;24468;52.128;9.278;2022-11-14T05:31:59;30.65;;;17.00;;
38717;SDS011;24468;52.128;9.278;2022-11-14T05:34:25;28.58;;;16.83;;
38717;SDS011;24468;52.128;9.278;2022-11-14T05:36:51;28.27;;;16.85;;
38717;SDS011;24468;52.128;9.278;2022-11-14T05:39:16;27.15;;;18.33;;
38717;SDS011;24468;52.128;9.278;2022-11-14T05:41:42;28.65;;;17.75;;
38717;SDS011;24468;52.128;9.278;2022-11-14T05:44:08;26.58;;;16.85;;
38717;SDS011;24468;52.128;9.278;2022-11-14T05:46:33;27.05;;;16.35;;
38717;SDS011;24468;52.128;9.278;2022-11-14T05:48:59;29.33;;;17.10;;
38717;SDS011;24468;52.128;9.278;2022-11-14T05:51:25;28.55;;;18.10;;
38717;SDS011;24468;52.128;9.278;2022-11-14T05:53:50;29.73;;;18.67;;
38717;SDS011;24468;52.128;9.278;2022-11-14T05:56:16;29.42;;;16.88;;
38717;SDS011;24468;52.128;9.278;2022-11-14T05:58:42;25.58;;;16.45;;
38717;SDS011;24468;52.128;9.278;2022-11-14T06:01:11;27.23;;;17.17;;
38717;SDS011;24468;52.128;9.278;2022-11-14T06:03:41;29.27;;;17.00;;
38717;SDS011;24468;52.128;9.278;2022-11-14T06:06:09;29.92;;;18.55;;
38717;SDS011;24468;52.128;9.278;2022-11-14T06:08:38;29.15;;;18.30;;
38717;SDS011;24468;52.128;9.278;2022-11-14T06:11:05;28.77;;;16.92;;
38717;SDS011;24468;52.128;9.278;2022-11-14T06:13:37;26.17;;;16.77;;
38717;SDS011;24468;52.128;9.278;2022-11-14T06:16:04;28.35;;;16.70;;
38717;SDS011;24468;52.128;9.278;2022-11-14T06:18:33;26.02;;;16.30;;
38717;SDS011;24468;52.128;9.278;2022-11-14T06:21:00;27.35;;;16.73;;
38717;SDS011;24468;52.128;9.278;2022-11-14T06:23:27;22.65;;;15.82;;
38717;SDS011;24468;52.128;9.278;2022-11-14T06:25:59;27.33;;;16.67;;
38717;SDS011;24468;52.128;9.278;2022-11-14T06:28:27;26.13;;;16.08;;
38717;SDS011;24468;52.128;9.278;2022-11-14T06:31:00;26.15;;;15.90;;
38717;SDS011;24468;52.128;9.278;2022-11-14T06:33:28;24.70;;;16.88;;
38717;SDS011;24468;52.128;9.278;2022-11-14T06:35:59;24.92;;;16.40;;
38717;SDS011;24468;52.128;9.278;2022-11-14T06:38:27;24.88;;;16.13;;
38717;SDS011;24468;52.128;9.278;2022-11-14T06:41:05;23.77;;;14.75;;
38717;SDS011;24468;52.128;9.278;2022-11-14T06:43:36;25.65;;;16.92;;
38717;SDS011;24468;52.128;9.278;2022-11-14T06:46:05;26.55;;;16.27;;
38717;SDS011;24468;52.128;9.278;2022-11-14T06:48:34;26.15;;;15.23;;
38717;SDS011;24468;52.128;9.278;2022-11-14T06:51:00;25.90;;;17.27;;
38717;SDS011;24468;52.128;9.278;2022-11-14T06:53:28;26.08;;;16.65;;
38717;SDS011;24468;52.128;9.278;2022-11-14T06:58:37;22.55;;;15.38;;
38717;SDS011;24468;52.128;9.278;2022-11-14T07:01:15;29.33;;;16.75;;
38717;SDS011;24468;52.128;9.278;2022-11-14T07:03:49;22.42;;;14.60;;
38717;SDS011;24468;52.128;9.278;2022-11-14T07:06:25;24.75;;;16.45;;
38717;SDS011;24468;52.128;9.278;2022-11-14T07:08:53;23.13;;;14.77;;
38717;SDS011;24468;52.128;9.278;2022-11-14T07:11:21;25.40;;;16.00;;
38717;SDS011;24468;52.128;9.278;2022-11-14T07:16:27;23.63;;;15.70;;
38717;SDS011;24468;52.128;9.278;2022-11-14T07:18:56;26.38;;;15.48;;
38717;SDS011;24468;52.128;9.278;2022-11-14T07:21:22;24.50;;;15.13;;
38717;SDS011;24468;52.128;9.278;2022-11-14T07:23:49;23.20;;;14.77;;
38717;SDS011;24468;52.128;9.278;2022-11-14T07:26:15;25.98;;;15.93;;
38717;SDS011;24468;52.128;9.278;2022-11-14T07:28:41;38.95;;;22.25;;
38717;SDS011;24468;52.128;9.278;2022-11-14T07:31:09;24.85;;;17.10;;
38717;SDS011;24468;52.128;9.278;2022-11-14T07:33:38;27.67;;;16.63;;
38717;SDS011;24468;52.128;9.278;2022-11-14T07:36:05;25.63;;;17.42;;
38717;SDS011;24468;52.128;9.278;2022-11-14T07:38:32;24.33;;;17.33;;
38717;SDS011;24468;52.128;9.278;2022-11-14T07:40:59;28.05;;;16.83;;
38717;SDS011;24468;52.128;9.278;2022-11-14T07:43:30;22.50;;;15.57;;
38717;SDS011;24468;52.128;9.278;2022-11-14T07:46:00;25.08;;;17.63;;
38717;SDS011;24468;52.128;9.278;2022-11-14T07:48:28;27.35;;;16.35;;
38717;SDS011;24468;52.128;9.278;2022-11-14T07:50:58;27.42;;;16.30;;
38717;SDS011;24468;52.128;9.278;2022-11-14T07:53:25;27.83;;;18.08;;
38717;SDS011;24468;52.128;9.278;2022-11-14T07:55:51;26.27;;;16.10;;
38717;SDS011;24468;52.128;9.278;2022-11-14T07:58:16;25.48;;;15.57;;
38717;SDS011;24468;52.128;9.278;2022-11-14T08:00:42;25.95;;;16.75;;
38717;SDS011;24468;52.128;9.278;2022-11-14T08:03:07;21.40;;;14.95;;
38717;SDS011;24468;52.128;9.278;2022-11-14T08:05:34;24.95;;;16.70;;
38717;SDS011;24468;52.128;9.278;2022-11-14T08:07:59;24.70;;;15.68;;
38717;SDS011;24468;52.128;9.278;2022-11-14T08:10:25;34.17;;;19.52;;
38717;SDS011;24468;52.128;9.278;2022-11-14T08:13:00;21.95;;;14.75;;
38717;SDS011;24468;52.128;9.278;2022-11-14T08:15:29;22.23;;;15.32;;
38717;SDS011;24468;52.128;9.278;2022-11-14T08:17:58;24.42;;;16.55;;
38717;SDS011;24468;52.128;9.278;2022-11-14T08:20:25;23.35;;;16.20;;
38717;SDS011;24468;52.128;9.278;2022-11-14T08:22:52;22.67;;;15.07;;
38717;SDS011;24468;52.128;9.278;2022-11-14T08:25:18;23.88;;;14.70;;
38717;SDS011;24468;52.128;9.278;2022-11-14T08:27:44;23.52;;;16.05;;
38717;SDS011;24468;52.128;9.278;2022-11-14T08:30:10;25.27;;;16.60;;
38717;SDS011;24468;52.128;9.278;2022-11-14T08:32:36;21.50;;;16.00;;
38717;SDS011;24468;52.128;9.278;2022-11-14T08:35:01;22.10;;;15.05;;
38717;SDS011;24468;52.128;9.278;2022-11-14T08:37:27;24.75;;;16.52;;
38717;SDS011;24468;52.128;9.278;2022-11-14T08:39:53;21.00;;;14.60;;
38717;SDS011;24468;52.128;9.278;2022-11-14T08:42:18;21.98;;;14.93;;
38717;SDS011;24468;52.128;9.278;2022-11-14T08:44:44;22.25;;;15.05;;
38717;SDS011;24468;52.128;9.278;2022-11-14T08:47:10;21.70;;;14.05;;
38717;SDS011;24468;52.128;9.278;2022-11-14T08:49:35;22.75;;;15.70;;
38717;SDS011;24468;52.128;9.278;2022-11-14T08:52:01;23.08;;;15.25;;
38717;SDS011;24468;52.128;9.278;2022-11-14T08:54:26;21.02;;;14.95;;
38717;SDS011;24468;52.128;9.278;2022-11-14T08:56:52;23.77;;;15.13;;
38717;SDS011;24468;52.128;9.278;2022-11-14T08:59:18;20.63;;;14.48;;
38717;SDS011;24468;52.128;9.278;2022-11-14T09:01:43;21.45;;;15.70;;
38717;SDS011;24468;52.128;9.278;2022-11-14T09:04:09;22.23;;;15.45;;
38717;SDS011;24468;52.128;9.278;2022-11-14T09:06:34;23.75;;;17.13;;
38717;SDS011;24468;52.128;9.278;2022-11-14T09:09:00;23.48;;;15.45;;
38717;SDS011;24468;52.128;9.278;2022-11-14T09:11:25;24.38;;;16.58;;
38717;SDS011;24468;52.128;9.278;2022-11-14T09:13:51;21.27;;;14.77;;
38717;SDS011;24468;52.128;9.278;2022-11-14T09:16:16;31.25;;;14.98;;
38717;SDS011;24468;52.128;9.278;2022-11-14T09:18:42;21.92;;;14.38;;
38717;SDS011;24468;52.128;9.278;2022-11-14T09:21:07;19.80;;;13.88;;
38717;SDS011;24468;52.128;9.278;2022-11-14T09:23:34;23.85;;;16.98;;
38717;SDS011;24468;52.128;9.278;2022-11-14T09:26:03;20.52;;;15.13;;
38717;SDS011;24468;52.128;9.278;2022-11-14T09:28:31;21.73;;;15.88;;
38717;SDS011;24468;52.128;9.278;2022-11-14T09:31:00;21.33;;;13.68;;
38717;SDS011;24468;52.128;9.278;2022-11-14T09:33:31;18.00;;;13.57;;
38717;SDS011;24468;52.128;9.278;2022-11-14T09:36:02;19.00;;;14.27;;
38717;SDS011;24468;52.128;9.278;2022-11-14T09:38:31;21.00;;;14.40;;
38717;SDS011;24468;52.128;9.278;2022-11-14T09:46:45;18.27;;;13.80;;
38717;SDS011;24468;52.128;9.278;2022-11-14T09:55:01;19.70;;;14.48;;
38717;SDS011;24468;52.128;9.278;2022-11-14T09:57:41;17.83;;;12.88;;
38717;SDS011;24468;52.128;9.278;2022-11-14T10:00:12;18.35;;;14.13;;
38717;SDS011;24468;52.128;9.278;2022-11-14T10:02:45;18.55;;;13.02;;
38717;SDS011;24468;52.128;9.278;2022-11-14T10:16:53;16.95;;;13.52;;
38717;SDS011;24468;52.128;9.278;2022-11-14T10:22:47;14.98;;;12.48;;
38717;SDS011;24468;52.128;9.278;2022-11-14T10:25:47;17.20;;;12.82;;
38717;SDS011;24468;52.128;9.278;2022-11-14T10:28:45;20.83;;;13.20;;
38717;SDS011;24468;52.128;9.278;2022-11-14T10:31:43;19.13;;;13.30;;
38717;SDS011;24468;52.128;9.278;2022-11-14T10:34:23;18.85;;;13.30;;
38717;SDS011;24468;52.128;9.278;2022-11-14T10:37:17;17.95;;;13.27;;
38717;SDS011;24468;52.128;9.278;2022-11-14T10:40:21;17.77;;;13.18;;
38717;SDS011;24468;52.128;9.278;2022-11-14T10:43:01;16.35;;;12.73;;
38717;SDS011;24468;52.128;9.278;2022-11-14T10:45:52;15.13;;;12.23;;
38717;SDS011;24468;52.128;9.278;2022-11-14T10:48:31;18.35;;;13.73;;
38717;SDS011;24468;52.128;9.278;2022-11-14T10:51:11;18.23;;;13.43;;
38717;SDS011;24468;52.128;9.278;2022-11-14T10:56:38;17.20;;;12.90;;
38717;SDS011;24468;52.128;9.278;2022-11-14T10:59:14;18.02;;;11.93;;
38717;SDS011;24468;52.128;9.278;2022-11-14T11:01:41;17.92;;;13.35;;
38717;SDS011;24468;52.128;9.278;2022-11-14T11:04:29;16.27;;;13.48;;
38717;SDS011;24468;52.128;9.278;2022-11-14T11:06:57;15.60;;;12.43;;
38717;SDS011;24468;52.128;9.278;2022-11-14T11:10:18;15.20;;;12.05;;
38717;SDS011;24468;52.128;9.278;2022-11-14T11:13:08;15.85;;;12.32;;
38717;SDS011;24468;52.128;9.278;2022-11-14T11:15:38;15.93;;;12.15;;
38717;SDS011;24468;52.128;9.278;2022-11-14T11:18:23;17.63;;;13.63;;
38717;SDS011;24468;52.128;9.278;2022-11-14T11:21:04;14.02;;;10.10;;
38717;SDS011;24468;52.128;9.278;2022-11-14T11:23:30;15.07;;;11.88;;
38717;SDS011;24468;52.128;9.278;2022-11-14T11:26:04;17.98;;;12.30;;
38717;SDS011;24468;52.128;9.278;2022-11-14T11:28:39;14.88;;;12.48;;
38717;SDS011;24468;52.128;9.278;2022-11-14T11:31:06;16.90;;;12.40;;
38717;SDS011;24468;52.128;9.278;2022-11-14T11:33:34;19.27;;;13.48;;
38717;SDS011;24468;52.128;9.278;2022-11-14T11:36:21;14.57;;;11.70;;
38717;SDS011;24468;52.128;9.278;2022-11-14T11:38:48;17.08;;;12.05;;
38717;SDS011;24468;52.128;9.278;2022-11-14T11:41:24;17.02;;;12.73;;
38717;SDS011;24468;52.128;9.278;2022-11-14T11:44:00;15.90;;;12.05;;
38717;SDS011;24468;52.128;9.278;2022-11-14T11:49:23;17.65;;;12.20;;
38717;SDS011;24468;52.128;9.278;2022-11-14T11:52:12;13.88;;;11.63;;
38717;SDS011;24468;52.128;9.278;2022-11-14T11:55:19;13.13;;;11.57;;
38717;SDS011;24468;52.128;9.278;2022-11-14T11:57:55;14.32;;;11.05;;
38717;SDS011;24468;52.128;9.278;2022-11-14T12:00:25;14.63;;;10.60;;
38717;SDS011;24468;52.128;9.278;2022-11-14T12:02:51;13.60;;;10.65;;
38717;SDS011;24468;52.128;9.278;2022-11-14T12:05:25;14.50;;;10.45;;
38717;SDS011;24468;52.128;9.278;2022-11-14T12:08:30;11.50;;;9.38;;
38717;SDS011;24468;52.128;9.278;2022-11-14T12:10:55;12.82;;;10.43;;
38717;SDS011;24468;52.128;9.278;2022-11-14T12:13:41;11.52;;;9.85;;
38717;SDS011;24468;52.128;9.278;2022-11-14T12:23:02;12.02;;;8.70;;
38717;SDS011;24468;52.128;9.278;2022-11-14T12:31:41;12.93;;;8.23;;
38717;SDS011;24468;52.128;9.278;2022-11-14T12:34:23;10.02;;;8.13;;
38717;SDS011;24468;52.128;9.278;2022-11-14T12:37:06;10.52;;;8.68;;
38717;SDS011;24468;52.128;9.278;2022-11-14T12:39:35;13.48;;;8.98;;
38717;SDS011;24468;52.128;9.278;2022-11-14T12:42:02;11.82;;;8.82;;
38717;SDS011;24468;52.128;9.278;2022-11-14T12:44:33;12.38;;;9.45;;
38717;SDS011;24468;52.128;9.278;2022-11-14T13:03:18;78.40;;;39.40;;
38717;SDS011;24468;52.128;9.278;2022-11-14T13:06:18;20.48;;;13.13;;
38717;SDS011;24468;52.128;9.278;2022-11-14T13:11:58;40.70;;;22.50;;
38717;SDS011;24468;52.128;9.278;2022-11-14T13:15:20;12.57;;;9.73;;
38717;SDS011;24468;52.128;9.278;2022-11-14T13:21:17;30.52;;;19.33;;
38717;SDS011;24468;52.128;9.278;2022-11-14T13:24:04;15.60;;;12.68;;
38717;SDS011;24468;52.128;9.278;2022-11-14T13:28:56;11.90;;;9.43;;
38717;SDS011;24468;52.128;9.278;2022-11-14T13:31:23;10.10;;;8.32;;
38717;SDS011;24468;52.128;9.278;2022-11-14T13:34:26;12.55;;;9.23;;
38717;SDS011;24468;52.128;9.278;2022-11-14T13:40:12;10.02;;;8.95;;
38717;SDS011;24468;52.128;9.278;2022-11-14T13:48:57;10.77;;;8.30;;
38717;SDS011;24468;52.128;9.278;2022-11-14T13:51:33;11.35;;;8.90;;
38717;SDS011;24468;52.128;9.278;2022-11-14T13:53:59;11.20;;;9.45;;
38717;SDS011;24468;52.128;9.278;2022-11-14T14:07:51;10.85;;;8.40;;
38717;SDS011;24468;52.128;9.278;2022-11-14T14:10:45;11.30;;;8.75;;
38717;SDS011;24468;52.128;9.278;2022-11-14T14:16:34;10.48;;;8.52;;
38717;SDS011;24468;52.128;9.278;2022-11-14T14:22:07;11.40;;;8.57;;
38717;SDS011;24468;52.128;9.278;2022-11-14T14:27:36;9.60;;;8.60;;
38717;SDS011;24468;52.128;9.278;2022-11-14T14:30:37;10.23;;;8.23;;
38717;SDS011;24468;52.128;9.278;2022-11-14T14:35:31;9.65;;;7.95;;
38717;SDS011;24468;52.128;9.278;2022-11-14T14:38:00;9.02;;;7.85;;
38717;SDS011;24468;52.128;9.278;2022-11-14T14:40:30;9.80;;;7.95;;
38717;SDS011;24468;52.128;9.278;2022-11-14T14:45:25;12.18;;;8.10;;
38717;SDS011;24468;52.128;9.278;2022-11-14T14:48:00;9.93;;;8.70;;
38717;SDS011;24468;52.128;9.278;2022-11-14T14:50:32;14.95;;;11.05;;
38717;SDS011;24468;52.128;9.278;2022-11-14T14:53:03;16.35;;;11.88;;
38717;SDS011;24468;52.128;9.278;2022-11-14T14:55:30;35.15;;;18.95;;
38717;SDS011;24468;52.128;9.278;2022-11-14T15:00:52;18.23;;;12.25;;
38717;SDS011;24468;52.128;9.278;2022-11-14T15:03:20;9.63;;;8.55;;
38717;SDS011;24468;52.128;9.278;2022-11-14T15:05:47;13.35;;;10.25;;
38717;SDS011;24468;52.128;9.278;2022-11-14T15:08:13;10.90;;;9.65;;
38717;SDS011;24468;52.128;9.278;2022-11-14T15:10:40;10.90;;;9.32;;
38717;SDS011;24468;52.128;9.278;2022-11-14T15:13:07;11.27;;;8.35;;
38717;SDS011;24468;52.128;9.278;2022-11-14T15:15:38;11.70;;;9.85;;
38717;SDS011;24468;52.128;9.278;2022-11-14T15:18:04;11.88;;;9.35;;
38717;SDS011;24468;52.128;9.278;2022-11-14T15:20:32;11.63;;;9.23;;
38717;SDS011;24468;52.128;9.278;2022-11-14T15:23:02;11.73;;;9.38;;
38717;SDS011;24468;52.128;9.278;2022-11-14T15:25:34;11.50;;;10.05;;
38717;SDS011;24468;52.128;9.278;2022-11-14T15:28:00;11.32;;;9.35;;
38717;SDS011;24468;52.128;9.278;2022-11-14T15:30:32;12.95;;;9.85;;
38717;SDS011;24468;52.128;9.278;2022-11-14T15:33:00;11.07;;;8.52;;
38717;SDS011;24468;52.128;9.278;2022-11-14T15:38:04;13.93;;;11.38;;
38717;SDS011;24468;52.128;9.278;2022-11-14T15:40:37;14.07;;;11.30;;
38717;SDS011;24468;52.128;9.278;2022-11-14T15:48:52;28.40;;;17.45;;
38717;SDS011;24468;52.128;9.278;2022-11-14T15:51:36;28.80;;;18.45;;
38717;SDS011;24468;52.128;9.278;2022-11-14T15:54:23;19.80;;;13.20;;
38717;SDS011;24468;52.128;9.278;2022-11-14T15:56:54;12.80;;;10.23;;
38717;SDS011;24468;52.128;9.278;2022-11-14T15:59:25;13.77;;;10.38;;
38717;SDS011;24468;52.128;9.278;2022-11-14T16:01:55;15.73;;;11.35;;
38717;SDS011;24468;52.128;9.278;2022-11-14T16:04:32;12.35;;;10.43;;
38717;SDS011;24468;52.128;9.278;2022-11-14T16:06:59;13.07;;;9.48;;
38717;SDS011;24468;52.128;9.278;2022-11-14T16:09:25;12.30;;;9.18;;
38717;SDS011;24468;52.128;9.278;2022-11-14T16:11:50;11.25;;;10.02;;
38717;SDS011;24468;52.128;9.278;2022-11-14T16:14:16;12.77;;;9.77;;
38717;SDS011;24468;52.128;9.278;2022-11-14T16:16:42;13.18;;;10.00;;
38717;SDS011;24468;52.128;9.278;2022-11-14T16:19:09;13.82;;;9.35;;
38717;SDS011;24468;52.128;9.278;2022-11-14T16:21:40;11.88;;;9.77;;
38717;SDS011;24468;52.128;9.278;2022-11-14T16:24:09;10.82;;;9.00;;
38717;SDS011;24468;52.128;9.278;2022-11-14T16:26:44;11.88;;;9.27;;
38717;SDS011;24468;52.128;9.278;2022-11-14T16:29:09;14.70;;;9.93;;
38717;SDS011;24468;52.128;9.278;2022-11-14T16:31:35;12.50;;;9.82;;
38717;SDS011;24468;52.128;9.278;2022-11-14T16:34:02;12.63;;;9.85;;
38717;SDS011;24468;52.128;9.278;2022-11-14T16:36:28;14.35;;;9.90;;
38717;SDS011;24468;52.128;9.278;2022-11-14T16:38:57;11.48;;;9.85;;
38717;SDS011;24468;52.128;9.278;2022-11-14T16:43:54;14.35;;;10.43;;
38717;SDS011;24468;52.128;9.278;2022-11-14T16:46:21;10.57;;;9.25;;
38717;SDS011;24468;52.128;9.278;2022-11-14T16:48:48;13.52;;;9.82;;
38717;SDS011;24468;52.128;9.278;2022-11-14T16:51:14;13.18;;;11.32;;
38717;SDS011;24468;52.128;9.278;2022-11-14T16:53:40;14.63;;;11.23;;
38717;SDS011;24468;52.128;9.278;2022-11-14T16:56:06;13.73;;;11.35;;